Time;durP1;ratioP1;P1;durP2;ratioP2;P2;SDS_P1;SDS_P2;PMS_P1;PMS_P2;Temp;Humidity;BMP_temperature;BMP_pressure;BME280_temperature;BME280_humidity;BME280_pressure;Samples;Min_cycle;Max_cycle;Signal;HPM_P1;HPM_P2
2023/11/26 00:01:45;;;;;;;6.50;1.70;;;;;;;7.73;60.37;97103.00;5066572;28;20233;-71
2023/11/26 00:04:10;;;;;;;6.27;2.00;;;;;;;7.72;60.11;97106.56;5064705;28;20214;-73
2023/11/26 00:06:36;;;;;;;3.10;1.80;;;;;;;7.69;60.69;97112.06;5066683;28;20247;-70
2023/11/26 00:09:01;;;;;;;2.50;1.80;;;;;;;7.71;60.27;97110.13;5063740;28;20214;-71
2023/11/26 00:11:27;;;;;;;5.23;2.00;;;;;;;7.69;59.70;97122.50;5066840;28;20191;-72
2023/11/26 00:13:52;;;;;;;2.60;1.70;;;;;;;7.71;59.76;97109.34;5039885;28;20252;-74
2023/11/26 00:16:19;;;;;;;4.80;1.50;;;;;;;7.64;59.46;97119.50;5061845;28;20224;-72
2023/11/26 00:18:44;;;;;;;3.10;1.70;;;;;;;7.66;59.62;97117.56;5063231;28;20212;-70
2023/11/26 00:21:09;;;;;;;2.77;1.87;;;;;;;7.63;59.03;97117.84;5062055;28;20445;-70
2023/11/26 00:23:35;;;;;;;4.20;1.77;;;;;;;7.64;59.07;97125.50;5059521;28;20221;-71
2023/11/26 00:26:00;;;;;;;5.37;2.10;;;;;;;7.60;58.98;97129.38;5066420;28;20272;-71
2023/11/26 00:28:26;;;;;;;3.13;1.70;;;;;;;7.59;58.92;97130.34;5067691;28;20214;-71
2023/11/26 00:30:51;;;;;;;3.87;2.17;;;;;;;7.61;58.62;97136.25;5068603;28;20610;-72
2023/11/26 00:33:18;;;;;;;4.33;1.70;;;;;;;7.62;58.36;97137.91;5070592;28;20229;-71
2023/11/26 00:35:45;;;;;;;5.27;2.17;;;;;;;7.59;58.54;97142.53;5068798;28;20245;-71
2023/11/26 00:38:11;;;;;;;2.30;2.13;;;;;;;7.57;58.43;97155.72;5057243;28;20487;-70
2023/11/26 00:40:36;;;;;;;3.07;2.00;;;;;;;7.63;58.12;97149.13;5061923;28;20438;-73
2023/11/26 00:43:02;;;;;;;3.47;1.83;;;;;;;7.61;58.36;97153.66;5068778;28;20193;-72
2023/11/26 00:45:27;;;;;;;3.67;2.10;;;;;;;7.55;58.45;97164.66;5070417;28;20298;-72
2023/11/26 00:47:53;;;;;;;5.07;2.30;;;;;;;7.46;58.65;97148.81;5069186;28;20220;-71
2023/11/26 00:50:18;;;;;;;2.70;1.90;;;;;;;7.48;58.75;97154.72;5035741;28;20276;-72
2023/11/26 00:52:45;;;;;;;3.13;1.97;;;;;;;7.50;58.88;97159.81;5061552;28;20206;-71
2023/11/26 00:55:10;;;;;;;8.03;2.83;;;;;;;7.53;58.48;97155.16;5070071;28;20289;-72
2023/11/26 00:57:36;;;;;;;7.03;2.70;;;;;;;7.56;58.04;97158.47;5069857;28;20894;-71
2023/11/26 01:00:10;;;;;;;5.33;1.73;;;;;;;7.51;58.45;97164.06;5067655;28;21108;-70
2023/11/26 01:02:35;;;;;;;3.97;2.37;;;;;;;7.45;58.30;97173.25;5067594;28;20186;-71
2023/11/26 01:05:02;;;;;;;4.73;2.10;;;;;;;7.45;58.74;97169.81;5062980;28;20542;-72
2023/11/26 01:07:30;;;;;;;3.53;2.13;;;;;;;7.47;58.20;97179.16;5065344;28;20256;-70
2023/11/26 01:09:58;;;;;;;6.00;2.10;;;;;;;7.44;58.60;97184.63;5065950;28;20460;-71
2023/11/26 01:12:25;;;;;;;6.30;2.27;;;;;;;7.48;58.54;97183.41;5059002;28;20512;-71
2023/11/26 01:14:50;;;;;;;13.90;2.37;;;;;;;7.42;58.47;97189.19;5068746;28;20452;-71
2023/11/26 01:17:17;;;;;;;4.63;2.60;;;;;;;7.45;58.71;97195.91;5034577;28;20505;-72
2023/11/26 01:19:42;;;;;;;3.00;2.30;;;;;;;7.43;58.50;97197.81;5052404;28;20179;-71
2023/11/26 01:22:08;;;;;;;6.30;2.87;;;;;;;7.48;58.71;97204.28;5051307;28;20938;-71
2023/11/26 01:24:33;;;;;;;2.30;2.10;;;;;;;7.53;58.72;97207.34;5051843;28;20256;-71
2023/11/26 01:26:59;;;;;;;4.10;2.20;;;;;;;7.55;58.22;97212.41;5067079;28;20201;-70
2023/11/26 01:29:24;;;;;;;4.20;2.23;;;;;;;7.57;57.97;97213.09;5068533;28;20293;-71
2023/11/26 01:31:49;;;;;;;3.70;2.20;;;;;;;7.59;57.36;97210.34;5064760;28;20214;-69
2023/11/26 01:34:15;;;;;;;5.10;2.60;;;;;;;7.58;58.37;97224.34;5062872;28;20262;-72
2023/11/26 01:36:41;;;;;;;2.90;2.10;;;;;;;7.60;58.15;97212.00;5069286;28;20273;-71
2023/11/26 01:39:07;;;;;;;6.93;2.70;;;;;;;7.61;58.16;97221.47;5068058;28;20190;-74
2023/11/26 01:41:33;;;;;;;3.03;2.70;;;;;;;7.61;58.96;97218.88;5067628;28;20209;-71
2023/11/26 01:43:59;;;;;;;4.07;2.17;;;;;;;7.63;58.27;97222.97;5069072;28;20432;-71
2023/11/26 01:46:24;;;;;;;6.50;2.20;;;;;;;7.58;58.66;97219.13;5069050;28;20194;-71
2023/11/26 01:48:50;;;;;;;2.70;2.17;;;;;;;7.57;58.33;97230.50;5049900;28;20727;-70
2023/11/26 01:51:18;;;;;;;6.00;2.80;;;;;;;7.62;58.01;97233.56;5055183;28;20216;-71
2023/11/26 01:53:46;;;;;;;2.80;2.10;;;;;;;7.63;58.42;97235.22;5051424;28;20190;-71
2023/11/26 01:56:12;;;;;;;4.40;2.20;;;;;;;7.59;57.90;97232.06;5050213;28;20457;-71
2023/11/26 01:58:38;;;;;;;3.33;2.00;;;;;;;7.59;58.07;97226.84;5049973;28;20433;-71
2023/11/26 02:01:03;;;;;;;5.30;2.00;;;;;;;7.64;57.94;97237.69;5047731;28;20447;-70
2023/11/26 02:03:29;;;;;;;3.80;2.20;;;;;;;7.50;57.48;97233.66;5068698;28;20202;-69
2023/11/26 02:05:54;;;;;;;2.60;2.10;;;;;;;7.48;58.08;97237.38;5064420;28;20332;-71
2023/11/26 02:08:20;;;;;;;4.00;2.50;;;;;;;7.48;57.87;97230.38;5042583;28;20677;-72
2023/11/26 02:10:46;;;;;;;2.60;1.97;;;;;;;7.44;57.67;97241.19;5066415;28;20193;-71
2023/11/26 02:13:11;;;;;;;3.70;1.77;;;;;;;7.33;58.12;97232.50;5049428;28;20209;-70
2023/11/26 02:15:37;;;;;;;2.70;2.03;;;;;;;7.34;57.80;97236.78;5067837;28;20232;-69
2023/11/26 02:18:02;;;;;;;6.07;1.83;;;;;;;7.29;58.08;97248.56;5066892;28;20232;-69
2023/11/26 02:20:28;;;;;;;3.93;1.97;;;;;;;7.32;57.75;97250.88;5065835;28;20202;-71
2023/11/26 02:22:53;;;;;;;7.10;2.07;;;;;;;7.33;57.52;97247.31;5067415;28;20194;-70
2023/11/26 02:25:28;;;;;;;1.83;1.60;;;;;;;7.32;58.08;97238.69;5063150;28;20805;-73
2023/11/26 02:27:54;;;;;;;4.70;2.00;;;;;;;7.31;58.10;97241.44;5065679;28;20324;-70
2023/11/26 02:30:20;;;;;;;4.10;1.97;;;;;;;7.28;57.48;97250.31;5055104;28;20525;-70
2023/11/26 02:32:47;;;;;;;2.13;1.90;;;;;;;7.22;57.84;97253.47;5066777;28;20645;-70
2023/11/26 02:35:12;;;;;;;5.30;2.30;;;;;;;7.14;58.09;97251.50;5067693;28;20455;-72
2023/11/26 02:37:38;;;;;;;4.17;1.77;;;;;;;7.17;58.13;97250.41;5063130;28;20938;-70
2023/11/26 02:40:05;;;;;;;4.50;2.10;;;;;;;7.16;57.78;97254.81;5067410;28;20537;-71
2023/11/26 02:42:32;;;;;;;7.57;2.17;;;;;;;7.09;57.72;97261.47;5068333;28;20746;-72
2023/11/26 02:44:59;;;;;;;4.53;1.90;;;;;;;7.06;57.90;97252.13;5066554;28;20766;-73
2023/11/26 02:47:26;;;;;;;2.50;1.67;;;;;;;7.06;58.00;97259.97;5067612;28;20437;-73
2023/11/26 02:49:52;;;;;;;3.00;1.83;;;;;;;7.04;57.58;97250.63;5067194;28;20956;-73
2023/11/26 02:52:18;;;;;;;4.13;2.10;;;;;;;6.97;57.82;97255.53;5062971;28;20429;-70
2023/11/26 02:54:44;;;;;;;2.40;1.73;;;;;;;6.94;57.98;97263.59;5062934;28;20555;-72
2023/11/26 02:57:09;;;;;;;2.60;1.70;;;;;;;6.85;58.39;97259.97;5064885;28;20562;-71
2023/11/26 02:59:35;;;;;;;4.97;2.13;;;;;;;6.86;58.43;97263.41;5061299;28;20320;-72
2023/11/26 03:02:01;;;;;;;4.03;2.20;;;;;;;6.89;58.33;97260.53;5065810;28;20189;-70
2023/11/26 03:04:26;;;;;;;4.13;2.17;;;;;;;6.94;58.78;97255.78;5049958;28;20206;-71
2023/11/26 03:06:52;;;;;;;2.40;2.20;;;;;;;7.01;58.58;97263.91;5068529;28;20201;-71
2023/11/26 03:14:45;;;;;;;4.60;2.10;;;;;;;6.91;58.57;97269.88;5063224;28;20448;-69
2023/11/26 03:17:13;;;;;;;2.20;2.00;;;;;;;6.89;58.77;97268.34;5067140;28;20444;-71
2023/11/26 03:19:39;;;;;;;2.73;2.03;;;;;;;6.86;58.74;97271.22;5050149;28;20429;-70
2023/11/26 03:22:09;;;;;;;6.60;2.23;;;;;;;6.86;58.52;97266.03;5065644;28;20425;-69
2023/11/26 03:24:35;;;;;;;8.10;2.57;;;;;;;6.83;58.57;97269.69;5059239;28;20205;-71
2023/11/26 03:27:02;;;;;;;3.03;2.30;;;;;;;6.87;58.67;97267.63;5066759;28;20460;-70
2023/11/26 03:29:27;;;;;;;2.30;2.10;;;;;;;6.85;58.50;97262.56;5061643;28;20475;-72
2023/11/26 03:31:53;;;;;;;4.23;2.20;;;;;;;6.78;58.72;97261.44;5065938;28;20815;-70
2023/11/26 03:34:19;;;;;;;4.00;2.33;;;;;;;6.79;58.73;97260.50;5065039;28;20182;-72
2023/11/26 03:36:44;;;;;;;4.10;1.70;;;;;;;6.74;58.61;97262.63;5043254;28;20205;-73
2023/11/26 03:39:12;;;;;;;3.57;2.33;;;;;;;6.69;58.43;97263.03;5065237;28;20197;-72
2023/11/26 03:41:38;;;;;;;3.50;2.00;;;;;;;6.65;58.81;97269.44;5067463;28;20190;-73
2023/11/26 03:44:04;;;;;;;2.60;1.83;;;;;;;6.69;58.10;97270.00;5067114;28;20511;-70
2023/11/26 03:46:32;;;;;;;6.47;2.13;;;;;;;6.64;58.54;97272.97;5067549;28;20529;-72
2023/11/26 03:48:58;;;;;;;6.53;1.83;;;;;;;6.64;58.55;97261.75;5065411;28;20547;-71
2023/11/26 03:51:24;;;;;;;6.13;2.10;;;;;;;6.60;58.66;97262.00;5067202;28;20417;-71
2023/11/26 03:53:49;;;;;;;2.03;1.80;;;;;;;6.64;59.00;97266.97;5067925;28;20431;-72
2023/11/26 03:56:15;;;;;;;2.37;2.03;;;;;;;6.70;59.23;97269.88;5066895;28;20217;-73
2023/11/26 03:58:40;;;;;;;2.30;1.90;;;;;;;6.71;58.99;97265.47;5066027;28;20651;-71
2023/11/26 04:01:06;;;;;;;4.47;1.70;;;;;;;6.81;58.93;97263.78;5063592;28;20189;-71
2023/11/26 04:03:31;;;;;;;1.93;1.70;;;;;;;6.80;59.47;97259.53;5066850;28;20186;-73
2023/11/26 04:05:57;;;;;;;6.97;1.90;;;;;;;6.80;59.44;97266.50;5061276;28;20284;-71
2023/11/26 04:08:22;;;;;;;2.60;1.60;;;;;;;6.86;59.02;97266.84;5059122;28;20206;-71
2023/11/26 04:10:48;;;;;;;2.27;1.30;;;;;;;6.94;58.73;97262.75;5071210;28;20194;-72
2023/11/26 04:13:13;;;;;;;3.07;1.80;;;;;;;6.92;59.45;97268.09;5064620;28;20186;-72
2023/11/26 04:15:44;;;;;;;3.83;2.07;;;;;;;6.97;59.04;97278.13;5071409;28;20206;-70
2023/11/26 04:18:13;;;;;;;2.50;1.60;;;;;;;6.97;59.05;97272.91;5070016;28;20186;-71
2023/11/26 04:20:38;;;;;;;2.40;1.70;;;;;;;6.99;58.85;97281.44;5063239;28;20428;-71
2023/11/26 04:23:04;;;;;;;4.53;1.90;;;;;;;6.97;59.12;97284.19;5069654;28;20791;-72
2023/11/26 04:25:29;;;;;;;3.47;1.70;;;;;;;6.96;59.35;97297.31;5060316;28;20480;-71
2023/11/26 04:27:55;;;;;;;2.43;1.53;;;;;;;6.99;59.16;97291.88;5070598;28;20237;-70
2023/11/26 04:30:21;;;;;;;6.40;1.70;;;;;;;7.00;58.62;97289.13;5063552;28;20190;-71
2023/11/26 04:32:47;;;;;;;3.30;1.97;;;;;;;6.96;59.05;97297.31;5070090;28;20194;-72
2023/11/26 04:35:12;;;;;;;3.70;2.30;;;;;;;6.97;58.93;97299.81;5066338;28;20458;-69
2023/11/26 04:37:38;;;;;;;2.40;2.17;;;;;;;6.98;59.27;97303.25;5065162;28;20187;-71
2023/11/26 04:40:05;;;;;;;4.50;1.73;;;;;;;7.01;59.33;97305.59;5066271;28;20190;-71
2023/11/26 04:42:32;;;;;;;7.10;2.27;;;;;;;7.02;59.22;97309.88;5045162;28;20708;-71
2023/11/26 04:44:58;;;;;;;5.57;2.17;;;;;;;7.02;59.11;97317.69;5070709;28;20811;-71
2023/11/26 04:47:23;;;;;;;3.33;1.60;;;;;;;7.01;59.38;97318.63;5066292;28;20421;-71
2023/11/26 04:49:49;;;;;;;3.83;1.80;;;;;;;7.03;59.18;97320.16;5054980;28;20186;-71
2023/11/26 04:52:14;;;;;;;3.17;1.80;;;;;;;7.01;59.27;97324.66;5068887;28;20270;-71
2023/11/26 04:54:40;;;;;;;2.00;1.40;;;;;;;7.06;59.01;97324.28;5069617;28;20213;-70
2023/11/26 04:57:05;;;;;;;4.13;1.57;;;;;;;7.06;58.65;97325.13;5067229;28;20182;-71
2023/11/26 04:59:31;;;;;;;3.33;1.80;;;;;;;7.01;58.77;97332.47;5051617;28;20183;-71
2023/11/26 05:01:56;;;;;;;1.87;1.60;;;;;;;7.04;58.88;97328.81;5061744;28;20263;-71
2023/11/26 05:04:22;;;;;;;6.33;1.70;;;;;;;7.06;59.14;97326.88;5050522;28;20194;-71
2023/11/26 05:06:47;;;;;;;4.60;1.70;;;;;;;7.11;58.52;97332.53;5065790;28;20240;-70
2023/11/26 05:09:13;;;;;;;3.97;1.70;;;;;;;7.10;58.48;97341.31;5066615;28;20229;-71
2023/11/26 05:11:45;;;;;;;2.97;1.57;;;;;;;7.03;59.43;97334.97;5069819;28;20190;-70
2023/11/26 05:14:11;;;;;;;4.13;1.90;;;;;;;7.09;58.90;97339.66;5064432;28;20222;-71
2023/11/26 05:16:36;;;;;;;3.30;1.83;;;;;;;7.12;59.20;97344.63;5047402;28;20809;-73
2023/11/26 05:19:02;;;;;;;2.07;1.90;;;;;;;7.10;58.94;97345.72;5063205;28;20187;-72
2023/11/26 05:21:27;;;;;;;2.60;1.50;;;;;;;7.00;59.33;97354.28;5049070;28;21353;-71
2023/11/26 05:23:54;;;;;;;3.50;2.23;;;;;;;7.01;59.56;97352.50;5051745;28;20194;-72
2023/11/26 05:26:20;;;;;;;1.67;1.40;;;;;;;7.08;59.24;97353.66;5034063;28;20264;-70
2023/11/26 05:28:45;;;;;;;6.20;1.50;;;;;;;7.09;59.11;97354.50;5067675;28;20460;-71
2023/11/26 05:31:11;;;;;;;3.73;1.50;;;;;;;7.13;59.20;97354.09;5066201;28;20182;-72
2023/11/26 05:33:37;;;;;;;5.00;2.03;;;;;;;7.14;58.65;97350.53;5060136;28;20824;-72
2023/11/26 05:36:05;;;;;;;2.00;1.60;;;;;;;7.13;59.12;97348.88;5068703;28;20708;-70
2023/11/26 05:38:31;;;;;;;2.37;1.50;;;;;;;7.17;58.78;97347.69;5067449;28;20437;-72
2023/11/26 05:40:57;;;;;;;2.20;1.47;;;;;;;7.18;58.94;97353.72;5066207;28;20413;-70
2023/11/26 05:43:22;;;;;;;2.87;1.93;;;;;;;7.19;58.69;97356.19;5063958;28;20420;-72
2023/11/26 05:45:48;;;;;;;4.90;2.40;;;;;;;7.16;58.77;97361.69;5063946;28;20681;-71
2023/11/26 05:48:13;;;;;;;6.07;2.07;;;;;;;7.15;58.55;97360.03;5047848;28;20297;-71
2023/11/26 05:50:39;;;;;;;2.70;1.50;;;;;;;7.16;58.67;97371.25;5067098;28;20182;-71
2023/11/26 05:53:04;;;;;;;2.50;2.10;;;;;;;7.17;58.47;97368.53;5067987;28;20197;-73
2023/11/26 05:55:30;;;;;;;7.27;2.50;;;;;;;7.16;58.65;97369.50;5068114;28;20217;-71
2023/11/26 05:57:55;;;;;;;2.10;1.90;;;;;;;7.14;58.65;97367.94;5064680;28;20246;-71
2023/11/26 06:00:21;;;;;;;1.93;1.73;;;;;;;7.13;58.48;97361.94;5068402;28;20682;-70
2023/11/26 06:02:46;;;;;;;2.07;1.87;;;;;;;7.16;58.53;97374.72;5068579;28;20186;-71
2023/11/26 06:05:12;;;;;;;5.13;1.23;;;;;;;7.15;58.42;97380.03;5050169;28;20216;-70
2023/11/26 06:07:38;;;;;;;2.90;1.53;;;;;;;7.20;57.75;97383.09;5063753;28;20223;-71
2023/11/26 06:10:04;;;;;;;2.50;1.37;;;;;;;7.19;57.71;97390.06;5067790;28;20187;-72
2023/11/26 06:12:31;;;;;;;2.50;1.40;;;;;;;7.13;57.43;97395.81;5065672;28;20205;-71
2023/11/26 06:14:56;;;;;;;3.20;1.30;;;;;;;7.10;57.98;97398.66;5061520;28;20459;-71
2023/11/26 06:17:22;;;;;;;4.17;1.27;;;;;;;7.13;57.59;97395.81;5062215;28;20417;-70
2023/11/26 06:19:49;;;;;;;1.83;1.20;;;;;;;7.13;57.66;97394.97;5064420;28;20278;-73
2023/11/26 06:22:14;;;;;;;2.60;1.30;;;;;;;7.20;56.92;97399.56;5069743;28;20445;-73
2023/11/26 06:24:40;;;;;;;2.43;1.47;;;;;;;7.16;57.02;97403.38;5069113;28;20513;-70
2023/11/26 06:27:05;;;;;;;1.80;1.50;;;;;;;7.14;57.26;97407.06;5068202;28;20282;-70
2023/11/26 06:29:31;;;;;;;3.67;1.47;;;;;;;7.24;57.56;97405.38;5067713;28;20933;-70
2023/11/26 06:31:56;;;;;;;5.17;1.63;;;;;;;7.23;58.05;97398.50;5052051;28;20722;-71
2023/11/26 06:37:43;;;;;;;1.77;1.43;;;;;;;7.23;57.68;97409.75;5060953;28;20655;-72
2023/11/26 06:40:12;;;;;;;3.60;1.60;;;;;;;7.19;57.91;97403.09;5051343;28;20528;-71
2023/11/26 06:42:41;;;;;;;4.93;1.70;;;;;;;7.16;57.88;97402.53;5066109;28;20210;-71
2023/11/26 06:45:08;;;;;;;2.50;1.77;;;;;;;7.15;57.64;97409.56;5067292;28;20513;-71
2023/11/26 06:47:33;;;;;;;5.60;1.60;;;;;;;7.13;58.43;97414.06;5057371;28;20955;-71
2023/11/26 06:49:59;;;;;;;2.30;1.60;;;;;;;7.15;58.06;97406.09;5052542;28;20534;-72
2023/11/26 06:52:24;;;;;;;2.87;1.23;;;;;;;7.25;58.12;97416.59;5061736;28;20577;-71
2023/11/26 06:54:50;;;;;;;2.17;1.40;;;;;;;7.17;58.14;97406.81;5059507;28;20301;-71
2023/11/26 06:57:15;;;;;;;2.80;1.27;;;;;;;7.17;58.06;97409.41;5067666;28;20193;-71
2023/11/26 06:59:41;;;;;;;2.97;1.63;;;;;;;7.18;58.05;97411.88;5064205;28;21062;-71
2023/11/26 07:02:08;;;;;;;2.40;1.60;;;;;;;7.21;57.91;97410.81;5066891;28;20602;-71
2023/11/26 07:04:34;;;;;;;5.13;1.53;;;;;;;7.27;57.91;97419.91;5058787;28;20216;-70
2023/11/26 07:06:59;;;;;;;3.20;1.67;;;;;;;7.29;57.92;97418.03;5061818;28;20421;-72
2023/11/26 07:09:25;;;;;;;1.97;1.57;;;;;;;7.26;57.92;97415.66;5065700;28;20724;-71
2023/11/26 07:11:50;;;;;;;4.20;1.87;;;;;;;7.29;57.99;97424.03;5065760;28;20232;-71
2023/11/26 07:14:16;;;;;;;1.90;1.70;;;;;;;7.20;57.48;97415.19;5066375;28;20668;-72
2023/11/26 07:16:41;;;;;;;4.40;1.90;;;;;;;7.27;58.14;97425.13;5057110;28;20588;-72
2023/11/26 07:19:07;;;;;;;3.13;1.87;;;;;;;7.28;57.96;97419.78;5066990;28;20190;-70
2023/11/26 07:21:39;;;;;;;2.70;2.23;;;;;;;7.34;57.80;97427.13;5063820;28;20696;-72
2023/11/26 07:24:04;;;;;;;5.80;2.17;;;;;;;7.32;58.27;97438.59;5066011;28;20190;-69
2023/11/26 07:26:30;;;;;;;3.03;2.10;;;;;;;7.35;58.35;97435.75;5063994;28;20455;-70
2023/11/26 07:28:55;;;;;;;2.73;1.97;;;;;;;7.35;58.64;97440.97;5064808;28;20210;-71
2023/11/26 07:31:27;;;;;;;6.30;2.10;;;;;;;7.40;58.60;97448.41;5047500;28;20619;-70
2023/11/26 07:33:52;;;;;;;4.33;1.93;;;;;;;7.41;58.19;97448.31;5060585;28;20229;-71
2023/11/26 07:36:23;;;;;;;3.27;2.20;;;;;;;7.46;58.62;97453.94;5044295;28;20449;-71
2023/11/26 07:39:00;;;;;;;3.60;2.10;;;;;;;7.45;58.37;97448.88;5068620;28;20538;-71
2023/11/26 07:41:26;;;;;;;2.53;2.00;;;;;;;7.43;58.37;97458.59;5065929;28;20482;-71
2023/11/26 07:43:54;;;;;;;2.13;1.60;;;;;;;7.49;58.64;97463.31;5069765;28;20521;-72
2023/11/26 07:46:21;;;;;;;2.40;1.87;;;;;;;7.55;58.36;97461.97;5050971;28;20463;-70
2023/11/26 07:48:46;;;;;;;2.97;2.10;;;;;;;7.58;58.71;97464.31;5067284;28;20471;-71
2023/11/26 07:51:13;;;;;;;3.73;2.47;;;;;;;7.65;59.02;97465.47;5065348;28;20452;-71
2023/11/26 07:53:39;;;;;;;3.67;2.17;;;;;;;7.69;58.89;97472.06;5061213;28;20190;-72
2023/11/26 07:56:06;;;;;;;7.33;2.90;;;;;;;7.67;58.84;97476.63;5062437;28;20528;-72
2023/11/26 07:58:34;;;;;;;2.87;2.27;;;;;;;7.67;58.32;97468.78;5058920;28;20417;-71
2023/11/26 08:01:03;;;;;;;4.13;2.30;;;;;;;7.77;59.09;97467.06;5061139;28;20436;-71
2023/11/26 08:03:32;;;;;;;5.53;1.93;;;;;;;7.84;58.46;97476.03;5059639;28;20549;-70
2023/11/26 08:05:57;;;;;;;3.60;2.30;;;;;;;7.92;58.25;97472.78;5065107;28;20817;-70
2023/11/26 08:08:23;;;;;;;8.20;2.50;;;;;;;7.95;58.30;97477.75;5063039;28;20513;-71
2023/11/26 08:10:50;;;;;;;3.77;2.27;;;;;;;8.01;57.51;97484.22;5067046;28;20190;-70
2023/11/26 08:13:19;;;;;;;4.33;2.50;;;;;;;8.02;57.49;97482.44;5067685;28;20224;-70
2023/11/26 08:15:44;;;;;;;3.27;2.40;;;;;;;8.07;58.10;97486.31;5058668;28;20463;-70
2023/11/26 08:18:10;;;;;;;5.20;2.33;;;;;;;8.07;57.93;97488.91;5066982;28;20424;-70
2023/11/26 08:20:37;;;;;;;6.93;2.97;;;;;;;8.15;58.16;97489.13;5064479;28;20318;-69
2023/11/26 08:23:05;;;;;;;3.30;2.80;;;;;;;8.21;58.18;97484.31;5062858;28;20217;-71
2023/11/26 08:25:33;;;;;;;4.10;3.53;;;;;;;8.17;57.71;97493.38;5065352;28;20456;-71
2023/11/26 08:28:01;;;;;;;5.90;2.80;;;;;;;8.16;58.04;97489.94;5067692;28;20483;-70
2023/11/26 08:30:39;;;;;;;4.57;2.93;;;;;;;8.16;58.47;97495.16;5060600;28;20465;-70
2023/11/26 08:33:05;;;;;;;4.33;2.67;;;;;;;8.17;58.04;97496.81;5048827;28;20969;-71
2023/11/26 08:35:34;;;;;;;4.17;2.83;;;;;;;8.12;57.56;97489.38;5065402;28;20472;-70
2023/11/26 08:38:02;;;;;;;4.90;2.97;;;;;;;8.08;57.69;97492.38;5061273;28;20432;-72
2023/11/26 08:40:34;;;;;;;9.90;3.60;;;;;;;8.03;57.92;97494.53;5047539;28;20531;-71
2023/11/26 08:43:01;;;;;;;5.17;3.10;;;;;;;8.08;58.11;97485.34;5068001;28;20443;-70
2023/11/26 08:45:26;;;;;;;4.50;3.30;;;;;;;8.18;58.19;97493.25;5059539;28;20467;-71
2023/11/26 08:47:53;;;;;;;7.67;3.47;;;;;;;8.15;58.16;97489.13;5067315;28;20556;-71
2023/11/26 08:50:18;;;;;;;6.23;3.73;;;;;;;8.18;58.07;97492.44;5066813;28;20614;-72
2023/11/26 08:52:44;;;;;;;8.00;4.20;;;;;;;8.25;57.56;97494.34;5067314;28;20448;-70
2023/11/26 08:55:09;;;;;;;4.23;3.57;;;;;;;8.33;57.36;97493.72;5067652;28;20253;-69
2023/11/26 08:57:38;;;;;;;5.87;3.73;;;;;;;8.31;58.00;97493.03;5066908;28;20202;-69
2023/11/26 09:00:09;;;;;;;4.37;3.40;;;;;;;8.37;57.44;97489.88;5057216;28;20191;-72
2023/11/26 09:02:36;;;;;;;6.43;3.33;;;;;;;8.39;57.36;97489.75;5065701;28;20464;-73
2023/11/26 09:05:03;;;;;;;5.63;3.50;;;;;;;8.53;57.72;97491.22;5054535;28;20498;-71
2023/11/26 09:07:28;;;;;;;4.93;3.50;;;;;;;8.62;57.11;97476.53;5059472;28;20569;-70
2023/11/26 09:09:54;;;;;;;5.20;3.40;;;;;;;9.01;57.00;97477.44;5065479;28;20472;-71
2023/11/26 09:12:22;;;;;;;6.80;3.47;;;;;;;9.37;56.01;97467.28;5067459;28;20182;-72
2023/11/26 09:14:48;;;;;;;16.77;3.90;;;;;;;9.86;55.39;97463.75;5057968;28;20222;-71
2023/11/26 09:17:13;;;;;;;4.67;3.13;;;;;;;10.53;54.13;97461.06;5062800;28;21036;-73
2023/11/26 09:19:39;;;;;;;6.30;3.60;;;;;;;11.34;52.16;97458.63;5061890;28;20269;-71
2023/11/26 09:22:04;;;;;;;8.20;3.17;;;;;;;11.99;50.09;97467.97;5067453;28;20213;-71
2023/11/26 09:24:31;;;;;;;7.43;3.07;;;;;;;12.47;48.28;97467.56;5067097;28;20194;-71
2023/11/26 09:26:56;;;;;;;6.43;2.50;;;;;;;12.84;46.81;97464.56;5062333;28;20234;-71
2023/11/26 09:29:22;;;;;;;8.97;2.90;;;;;;;13.11;45.85;97462.66;5066982;28;20612;-73
2023/11/26 09:31:48;;;;;;;7.87;2.83;;;;;;;13.40;44.66;97464.03;5054397;28;20198;-70
2023/11/26 09:34:13;;;;;;;4.10;2.90;;;;;;;13.77;44.06;97462.72;5033654;28;20190;-73
2023/11/26 09:36:42;;;;;;;4.30;2.77;;;;;;;13.64;43.07;97465.03;5062193;28;20450;-71
2023/11/26 09:39:11;;;;;;;9.70;2.90;;;;;;;13.66;43.95;97478.84;5054643;28;20657;-72
2023/11/26 09:41:36;;;;;;;5.30;2.60;;;;;;;13.71;44.39;97478.34;5064849;28;20459;-71
2023/11/26 09:44:02;;;;;;;3.67;2.40;;;;;;;13.46;43.64;97475.72;5051757;28;20432;-71
2023/11/26 09:46:29;;;;;;;3.87;2.40;;;;;;;13.01;44.92;97468.06;5068724;28;20233;-70
2023/11/26 09:48:54;;;;;;;7.87;2.30;;;;;;;12.85;45.14;97481.19;5068043;28;20277;-72
2023/11/26 09:51:23;;;;;;;6.40;2.90;;;;;;;12.72;45.71;97476.38;5050582;28;20447;-70
2023/11/26 09:53:49;;;;;;;3.73;2.63;;;;;;;12.43;46.46;97475.78;5064834;28;20360;-71
2023/11/26 09:56:15;;;;;;;3.80;2.83;;;;;;;12.22;46.41;97483.22;5068123;28;20555;-71
2023/11/26 09:58:40;;;;;;;7.50;2.47;;;;;;;12.04;46.58;97481.47;5065257;28;20436;-70
2023/11/26 10:01:10;;;;;;;3.20;2.70;;;;;;;11.79;47.74;97478.66;5068471;28;20433;-70
2023/11/26 10:03:58;;;;;;;6.57;2.97;;;;;;;11.55;47.71;97484.53;5058491;28;20193;-70
2023/11/26 10:06:25;;;;;;;5.43;2.57;;;;;;;11.40;47.96;97475.56;5059299;28;20453;-70
2023/11/26 10:08:50;;;;;;;6.70;2.90;;;;;;;11.14;48.20;97485.00;5055069;28;20476;-68
2023/11/26 10:11:22;;;;;;;8.83;3.43;;;;;;;10.97;48.94;97483.16;5059554;28;20463;-68
2023/11/26 10:13:48;;;;;;;5.67;3.20;;;;;;;10.79;49.71;97483.97;5058844;28;20192;-69
2023/11/26 10:16:27;;;;;;;5.93;3.20;;;;;;;10.68;50.43;97478.94;5063072;28;20449;-68
2023/11/26 10:18:52;;;;;;;8.00;3.53;;;;;;;10.54;51.15;97483.69;5060863;28;20448;-69
2023/11/26 10:21:18;;;;;;;4.67;3.37;;;;;;;10.57;51.03;97478.16;5066356;28;20448;-68
2023/11/26 10:23:44;;;;;;;6.07;3.63;;;;;;;10.47;51.01;97461.63;5066164;28;20269;-68
2023/11/26 10:26:25;;;;;;;6.73;3.53;;;;;;;10.49;50.77;97472.81;5058942;28;20211;-67
2023/11/26 10:29:08;;;;;;;7.07;3.67;;;;;;;10.40;50.73;97466.63;5058307;28;20504;-68
2023/11/26 10:31:37;;;;;;;10.07;3.93;;;;;;;10.42;51.11;97466.50;5061400;28;21010;-68
2023/11/26 10:34:10;;;;;;;7.77;3.70;;;;;;;10.41;51.16;97463.03;5062578;28;20444;-70
2023/11/26 10:36:36;;;;;;;4.77;3.63;;;;;;;10.42;51.10;97458.66;5062977;28;20451;-69
2023/11/26 10:39:04;;;;;;;5.50;3.30;;;;;;;10.36;51.59;97439.06;5065332;28;20477;-69
2023/11/26 10:41:37;;;;;;;4.43;3.60;;;;;;;10.40;51.27;97450.91;5067356;28;20202;-68
2023/11/26 10:44:04;;;;;;;5.43;4.20;;;;;;;10.43;51.42;97442.78;5067555;28;20436;-68
2023/11/26 10:46:33;;;;;;;6.30;3.90;;;;;;;10.70;51.84;97440.31;5059546;28;20459;-69
2023/11/26 10:49:15;;;;;;;6.07;3.70;;;;;;;11.36;50.82;97438.28;5059978;28;20464;-67
2023/11/26 10:51:45;;;;;;;6.90;3.47;;;;;;;11.49;49.68;97436.09;5067933;28;20942;-69
2023/11/26 10:54:25;;;;;;;6.63;3.53;;;;;;;11.52;49.33;97435.78;5061512;28;20466;-71
2023/11/26 10:56:58;;;;;;;4.40;3.23;;;;;;;11.59;48.62;97440.44;5051839;28;20424;-71
2023/11/26 10:59:25;;;;;;;4.40;3.17;;;;;;;11.50;48.42;97442.19;5065902;28;20817;-72
2023/11/26 11:01:51;;;;;;;6.17;3.17;;;;;;;11.47;47.84;97438.03;5050882;28;20443;-72
2023/11/26 11:04:21;;;;;;;8.73;3.30;;;;;;;11.50;47.67;97443.00;5070756;28;20934;-70
2023/11/26 11:06:46;;;;;;;5.10;3.23;;;;;;;11.50;47.69;97440.38;5051263;28;20198;-70
2023/11/26 11:09:17;;;;;;;3.30;3.00;;;;;;;11.38;47.13;97433.72;5058491;28;20469;-70
2023/11/26 11:11:59;;;;;;;4.00;3.60;;;;;;;11.32;47.53;97431.72;5033145;28;20228;-68
2023/11/26 11:14:26;;;;;;;3.83;3.13;;;;;;;11.23;48.04;97428.19;5070144;28;20447;-69
2023/11/26 11:16:51;;;;;;;5.17;3.87;;;;;;;11.15;48.69;97433.38;5068065;28;20436;-69
2023/11/26 11:19:52;;;;;;;7.93;3.47;;;;;;;11.07;48.57;97436.75;5068349;28;20803;-73
2023/11/26 11:22:18;;;;;;;6.33;3.07;;;;;;;10.95;48.42;97433.50;5061103;28;20194;-72
2023/11/26 11:24:44;;;;;;;3.20;2.70;;;;;;;10.81;48.22;97426.97;5067871;28;20954;-69
2023/11/26 11:27:09;;;;;;;4.10;2.43;;;;;;;10.68;48.49;97424.69;5049351;28;20424;-67
2023/11/26 11:29:35;;;;;;;4.60;2.77;;;;;;;10.68;48.73;97423.91;5067425;28;20237;-68
2023/11/26 11:32:02;;;;;;;4.83;3.60;;;;;;;10.59;48.70;97429.03;5062123;28;20239;-69
2023/11/26 11:34:31;;;;;;;6.70;3.57;;;;;;;10.49;48.89;97432.69;5067772;28;20209;-68
2023/11/26 11:37:01;;;;;;;4.57;3.50;;;;;;;10.42;49.37;97438.50;5061471;28;20447;-69
2023/11/26 11:39:49;;;;;;;5.07;3.10;;;;;;;10.36;50.06;97432.97;5058180;28;20523;-69
2023/11/26 11:42:17;;;;;;;5.37;2.87;;;;;;;10.42;49.93;97432.44;5065584;28;20433;-70
2023/11/26 11:44:43;;;;;;;6.60;2.83;;;;;;;10.38;48.98;97433.69;5067625;28;20456;-68
2023/11/26 11:47:32;;;;;;;7.23;3.33;;;;;;;10.26;49.14;97433.84;5052001;28;20429;-69